Triadelphia, West Virginia
Current Conditions -  °F | °C
As of 6:53 AM on Wednesday 28 Jan 2015 (Local Time) from KHLG Reporting Station
Overcast Overcast  
Wind Chill:   Ceiling: 1400
Heat Index: 12°   Visibility: 10mi
Dew Point:   Wind: 5mph
Humidity: 88%   Direction: 240°WSW
Pressure: 30.27"   Gusts: NA
Location:  40.05°N, 80.63°W
Report Text: KHLG 281153Z 24004KT 10SM OVC014 M11/M13 A3027 RMK AO2 SLP274 T11111128 11100 21111 51015
Loading
Personal Weather Stations






























Interactive Weather Map New forecast layout! Learn more

10-Day Weather Forecast

Advertisements
Track Severe Weather on mobile